createdAt,value
2018-08-19T00:01:00.622Z,16.20
2018-08-19T00:03:30.338Z,16.10
2018-08-19T00:06:00.142Z,16.10
2018-08-19T00:08:29.711Z,16.00
2018-08-19T00:11:04.116Z,16.00
2018-08-19T00:13:33.905Z,16.00
2018-08-19T00:16:03.152Z,16.00
2018-08-19T00:18:32.724Z,16.00
2018-08-19T00:21:02.020Z,15.90
2018-08-19T00:23:36.817Z,15.80
2018-08-19T00:26:06.186Z,15.70
2018-08-19T00:28:35.252Z,15.60
2018-08-19T00:31:06.763Z,15.50
2018-08-19T00:33:36.181Z,15.40
2018-08-19T00:36:20.355Z,15.30
2018-08-19T00:38:49.819Z,15.30
2018-08-19T00:41:19.175Z,15.30
2018-08-19T00:43:48.573Z,15.30
2018-08-19T00:46:25.129Z,15.20
2018-08-19T00:48:54.688Z,15.20
2018-08-19T00:51:24.244Z,15.20
2018-08-19T00:53:53.692Z,15.10
2018-08-19T00:56:23.255Z,15.10
2018-08-19T00:58:52.953Z,15.00
2018-08-19T01:01:31.069Z,14.90
2018-08-19T01:04:00.684Z,14.90
2018-08-19T01:06:31.893Z,14.90
2018-08-19T01:09:01.169Z,14.80
2018-08-19T01:11:35.459Z,14.80
2018-08-19T01:14:11.086Z,14.80
2018-08-19T01:16:40.841Z,14.80
2018-08-19T01:19:10.689Z,14.80
2018-08-19T01:21:40.149Z,14.70
2018-08-19T01:24:10.910Z,14.70
2018-08-19T01:26:41.588Z,14.60
2018-08-19T01:29:11.666Z,14.60
2018-08-19T01:31:41.284Z,14.60
2018-08-19T01:34:13.888Z,14.50
2018-08-19T01:36:43.492Z,14.50
2018-08-19T01:39:13.533Z,14.50
2018-08-19T01:41:43.075Z,14.60
2018-08-19T01:44:14.093Z,14.50
2018-08-19T01:46:47.244Z,14.50
2018-08-19T01:49:16.799Z,14.60
2018-08-19T01:51:46.677Z,14.60
2018-08-19T01:54:21.172Z,14.60
2018-08-19T01:56:53.450Z,14.50
2018-08-19T01:59:23.326Z,14.40
2018-08-19T02:01:56.955Z,14.30
2018-08-19T02:04:26.568Z,14.30
2018-08-19T02:06:55.772Z,14.20
2018-08-19T02:09:25.063Z,14.10
2018-08-19T02:11:55.688Z,14.10
2018-08-19T02:14:25.303Z,14.00
2018-08-19T02:16:55.599Z,14.00
2018-08-19T02:19:25.224Z,13.90
2018-08-19T02:21:54.691Z,13.90
2018-08-19T02:24:24.507Z,13.80
2018-08-19T02:26:53.858Z,13.80
2018-08-19T02:29:37.157Z,13.80
2018-08-19T02:32:08.585Z,13.70
2018-08-19T02:34:43.164Z,13.70
2018-08-19T02:37:17.877Z,13.70
2018-08-19T02:39:49.525Z,13.70
2018-08-19T02:42:26.463Z,13.60
2018-08-19T02:45:00.198Z,13.60
2018-08-19T02:47:29.978Z,13.70
2018-08-19T02:49:59.368Z,13.70
2018-08-19T02:52:34.033Z,13.70
2018-08-19T02:55:05.758Z,13.60
2018-08-19T02:57:35.742Z,13.60
2018-08-19T03:00:05.287Z,13.50
2018-08-19T03:02:36.919Z,13.60
2018-08-19T03:05:09.535Z,13.50
2018-08-19T03:07:38.964Z,13.50
2018-08-19T03:10:13.408Z,13.50
2018-08-19T03:12:43.097Z,13.50
2018-08-19T03:15:14.139Z,13.50
2018-08-19T03:17:45.949Z,13.40
2018-08-19T03:20:15.405Z,13.30
2018-08-19T03:22:44.646Z,13.30
2018-08-19T03:25:14.153Z,13.30
2018-08-19T03:27:43.823Z,13.20
2018-08-19T03:30:14.858Z,13.20
2018-08-19T03:32:50.657Z,13.20
2018-08-19T03:35:20.803Z,13.20
2018-08-19T03:37:52.284Z,13.20
2018-08-19T03:40:24.626Z,13.20
2018-08-19T03:42:54.209Z,13.20
2018-08-19T03:45:23.659Z,13.10
2018-08-19T03:47:53.678Z,13.10
2018-08-19T03:50:24.469Z,13.10
2018-08-19T03:52:54.756Z,13.10
2018-08-19T03:55:30.310Z,13.20
2018-08-19T03:58:05.453Z,13.20
2018-08-19T04:00:36.017Z,13.10
2018-08-19T04:03:21.725Z,13.10
2018-08-19T04:05:53.737Z,13.00
2018-08-19T04:08:26.962Z,13.00
2018-08-19T04:10:56.465Z,13.00
2018-08-19T04:13:31.381Z,13.00
2018-08-19T04:16:04.403Z,13.00
2018-08-19T04:18:38.462Z,13.00
2018-08-19T04:21:09.197Z,13.00
2018-08-19T04:23:41.247Z,13.10
2018-08-19T04:26:10.955Z,13.10
2018-08-19T04:28:41.452Z,13.20
2018-08-19T04:31:15.230Z,13.20
2018-08-19T04:33:46.065Z,13.20
2018-08-19T04:36:16.935Z,13.30
2018-08-19T04:38:46.408Z,13.40
2018-08-19T04:41:16.101Z,13.50
2018-08-19T04:43:46.278Z,13.60
2018-08-19T04:46:15.660Z,13.60
2018-08-19T04:48:47.799Z,13.70
2018-08-19T04:51:17.462Z,13.90
2018-08-19T04:53:46.850Z,13.90
2018-08-19T04:56:16.730Z,14.00
2018-08-19T04:58:46.341Z,14.10
2018-08-19T05:01:15.756Z,14.20
2018-08-19T05:03:45.990Z,14.30
2018-08-19T05:06:15.776Z,14.40
2018-08-19T05:08:45.134Z,14.60
2018-08-19T05:11:14.625Z,15.00
2018-08-19T05:13:44.011Z,15.40
2018-08-19T05:16:13.308Z,15.80
2018-08-19T05:18:50.586Z,16.40
2018-08-19T05:21:19.991Z,17.00
2018-08-19T05:23:49.726Z,17.80
2018-08-19T05:26:19.220Z,18.40
2018-08-19T05:29:10.739Z,18.80
2018-08-19T05:31:41.485Z,19.00
2018-08-19T05:34:18.724Z,19.30
2018-08-19T05:36:50.414Z,19.90
2018-08-19T05:39:19.828Z,20.40
2018-08-19T05:42:00.216Z,20.80
2018-08-19T05:44:32.775Z,21.10
2018-08-19T05:47:08.265Z,21.90
2018-08-19T05:49:39.965Z,22.70
2018-08-19T05:52:26.983Z,23.10
2018-08-19T05:54:59.868Z,23.20
2018-08-19T05:57:30.796Z,23.50
2018-08-19T06:00:04.431Z,24.00
2018-08-19T06:02:39.117Z,24.20
2018-08-19T06:05:08.794Z,24.90
2018-08-19T06:07:38.283Z,25.10
2018-08-19T06:10:07.852Z,25.60
2018-08-19T06:12:36.891Z,25.80
2018-08-19T06:15:06.366Z,25.50
2018-08-19T06:17:35.361Z,25.10
2018-08-19T06:20:05.224Z,25.50
2018-08-19T06:22:39.328Z,26.00
2018-08-19T06:25:09.194Z,26.60
2018-08-19T06:27:43.985Z,27.00
2018-08-19T06:30:14.181Z,27.40
2018-08-19T06:32:43.711Z,25.80
2018-08-19T06:35:13.080Z,25.50
2018-08-19T06:37:42.629Z,26.00
2018-08-19T06:40:15.019Z,25.60
2018-08-19T06:42:44.622Z,26.60
2018-08-19T06:45:14.247Z,25.20
2018-08-19T06:47:44.126Z,24.90
2018-08-19T06:50:21.630Z,25.80
2018-08-19T06:52:51.428Z,26.50
2018-08-19T06:55:21.049Z,25.90
2018-08-19T06:57:50.588Z,26.50
2018-08-19T07:00:26.864Z,27.00
2018-08-19T07:02:57.660Z,26.80
2018-08-19T07:05:27.156Z,28.00
2018-08-19T07:07:56.650Z,28.80
2018-08-19T07:10:32.073Z,27.90
2018-08-19T07:13:07.342Z,28.00
2018-08-19T07:15:38.210Z,27.70
2018-08-19T07:18:09.161Z,27.90
2018-08-19T07:20:39.287Z,28.20
2018-08-19T07:23:09.287Z,27.40
2018-08-19T07:25:41.053Z,27.10
2018-08-19T07:28:11.154Z,28.30
2018-08-19T07:30:41.124Z,26.90
2018-08-19T07:33:12.029Z,27.10
2018-08-19T07:35:41.431Z,27.20
2018-08-19T07:38:10.922Z,28.60
2018-08-19T07:40:41.865Z,28.90
2018-08-19T07:43:11.651Z,28.90
2018-08-19T07:45:41.233Z,28.50
2018-08-19T07:48:10.708Z,28.60
2018-08-19T07:50:40.367Z,27.70
2018-08-19T07:53:09.687Z,26.40
2018-08-19T07:55:39.106Z,26.20
2018-08-19T07:58:08.635Z,27.30
2018-08-19T08:00:39.399Z,27.00
2018-08-19T08:03:09.051Z,27.00
2018-08-19T08:05:43.738Z,27.20
2018-08-19T08:08:13.036Z,28.50
2018-08-19T08:10:42.566Z,27.90
2018-08-19T08:13:13.008Z,28.90
2018-08-19T08:15:47.338Z,29.90
2018-08-19T08:18:16.761Z,30.40
2018-08-19T08:20:46.449Z,31.90
2018-08-19T08:23:27.007Z,30.10
2018-08-19T08:25:56.353Z,30.80
2018-08-19T08:28:25.673Z,29.50
2018-08-19T08:30:55.016Z,30.10
2018-08-19T08:33:24.415Z,28.70
2018-08-19T08:35:56.313Z,29.70
2018-08-19T08:38:25.807Z,28.10
2018-08-19T08:40:55.859Z,27.90
2018-08-19T08:43:25.421Z,29.30
2018-08-19T08:45:57.982Z,28.90
2018-08-19T08:48:27.664Z,29.90
2018-08-19T08:50:57.177Z,30.30
2018-08-19T08:53:32.178Z,30.20
2018-08-19T08:56:01.472Z,29.00
2018-08-19T08:58:30.973Z,29.30
2018-08-19T09:01:00.533Z,30.10
2018-08-19T09:03:30.144Z,29.30
2018-08-19T09:05:59.694Z,29.60
2018-08-19T09:08:29.260Z,28.80
2018-08-19T09:11:00.208Z,29.80
2018-08-19T09:13:29.740Z,31.20
2018-08-19T09:15:59.192Z,32.90
2018-08-19T09:18:28.675Z,32.40
2018-08-19T09:20:58.110Z,30.10
2018-08-19T09:23:27.611Z,30.00
2018-08-19T09:25:57.091Z,31.00
2018-08-19T09:28:26.536Z,31.50
2018-08-19T09:30:55.965Z,31.80
2018-08-19T09:33:25.355Z,32.00
2018-08-19T09:35:54.772Z,31.10
2018-08-19T09:38:24.419Z,31.40
2018-08-19T09:40:54.003Z,30.00
2018-08-19T09:43:23.400Z,29.50
2018-08-19T09:45:52.746Z,29.40
2018-08-19T09:48:22.232Z,29.00
2018-08-19T09:50:51.455Z,29.10
2018-08-19T09:53:20.926Z,29.50
2018-08-19T09:55:56.016Z,30.20
2018-08-19T09:58:25.456Z,29.40
2018-08-19T10:00:59.845Z,30.10
2018-08-19T10:03:31.871Z,31.80
2018-08-19T10:06:01.562Z,31.40
2018-08-19T10:08:30.921Z,31.10
2018-08-19T10:11:00.414Z,31.10
2018-08-19T10:13:30.030Z,30.40
2018-08-19T10:15:59.386Z,30.20
2018-08-19T10:18:28.981Z,31.00
2018-08-19T10:21:00.006Z,32.00
2018-08-19T10:23:29.829Z,31.70
2018-08-19T10:25:59.188Z,32.20
2018-08-19T10:28:28.602Z,32.80
2018-08-19T10:30:58.926Z,33.00
2018-08-19T10:33:28.453Z,31.40
2018-08-19T10:36:00.048Z,31.30
2018-08-19T10:38:29.724Z,30.00
2018-08-19T10:41:03.184Z,30.40
2018-08-19T10:43:32.612Z,31.20
2018-08-19T10:46:02.016Z,30.90
2018-08-19T10:48:32.034Z,31.70
2018-08-19T10:51:03.610Z,33.10
2018-08-19T10:53:33.090Z,33.90
2018-08-19T10:56:03.346Z,34.80
2018-08-19T10:58:32.833Z,34.20
2018-08-19T11:01:02.388Z,33.70
2018-08-19T11:03:31.905Z,33.70
2018-08-19T11:06:01.306Z,33.70
2018-08-19T11:08:31.136Z,32.90
2018-08-19T11:11:00.644Z,31.70
2018-08-19T11:13:29.983Z,30.90
2018-08-19T11:15:59.596Z,31.40
2018-08-19T11:18:38.883Z,31.50
2018-08-19T11:21:16.374Z,31.40
2018-08-19T11:23:47.045Z,31.50
2018-08-19T11:26:16.447Z,32.10
2018-08-19T11:28:49.657Z,33.60
2018-08-19T11:31:25.871Z,33.90
2018-08-19T11:33:56.272Z,33.70
2018-08-19T11:36:31.733Z,32.60
2018-08-19T11:39:01.239Z,32.80
2018-08-19T11:41:32.756Z,32.10
2018-08-19T11:44:09.337Z,31.50
2018-08-19T11:46:39.003Z,31.90
2018-08-19T11:49:09.694Z,32.40
2018-08-19T11:51:49.859Z,33.60
2018-08-19T11:54:20.202Z,34.30
2018-08-19T11:57:09.604Z,33.40
2018-08-19T11:59:44.892Z,33.40
2018-08-19T12:02:17.284Z,33.10
2018-08-19T12:04:47.130Z,32.50
2018-08-19T12:07:17.033Z,32.30
2018-08-19T12:10:02.142Z,32.00
2018-08-19T12:12:46.217Z,31.90
2018-08-19T12:15:15.747Z,32.10
2018-08-19T12:17:45.016Z,33.10
2018-08-19T12:20:17.602Z,32.80
2018-08-19T12:22:47.705Z,33.70
2018-08-19T12:25:17.160Z,35.20
2018-08-19T12:27:46.596Z,32.50
2018-08-19T12:30:16.423Z,32.70
2018-08-19T12:32:45.986Z,34.20
2018-08-19T12:35:15.439Z,34.30
2018-08-19T12:37:44.997Z,34.60
2018-08-19T12:40:14.732Z,35.30
2018-08-19T12:42:49.451Z,34.60
2018-08-19T12:45:19.007Z,34.40
2018-08-19T12:47:48.471Z,34.00
2018-08-19T12:50:17.930Z,33.90
2018-08-19T12:52:47.757Z,34.00
2018-08-19T12:55:17.153Z,34.80
2018-08-19T12:57:47.840Z,33.20
2018-08-19T13:00:25.953Z,33.80
2018-08-19T13:02:55.914Z,32.60
2018-08-19T13:05:25.262Z,32.70
2018-08-19T13:07:54.779Z,32.90
2018-08-19T13:10:24.437Z,34.30
2018-08-19T13:13:03.825Z,34.50
2018-08-19T13:15:33.489Z,33.60
2018-08-19T13:18:02.741Z,34.00
2018-08-19T13:20:32.010Z,34.90
2018-08-19T13:23:02.650Z,35.20
2018-08-19T13:25:32.540Z,35.40
2018-08-19T13:28:02.101Z,35.60
2018-08-19T13:30:31.978Z,35.40
2018-08-19T13:33:02.169Z,35.40
2018-08-19T13:35:34.462Z,34.90
2018-08-19T13:38:05.726Z,32.30
2018-08-19T13:40:38.080Z,32.30
2018-08-19T13:43:08.391Z,32.10
2018-08-19T13:45:38.526Z,32.30
2018-08-19T13:48:08.281Z,33.20
2018-08-19T13:50:38.858Z,34.00
2018-08-19T13:53:09.128Z,34.00
2018-08-19T13:55:42.770Z,35.00
2018-08-19T13:58:13.260Z,34.00
2018-08-19T14:01:22.183Z,34.50
2018-08-19T14:04:12.639Z,35.00
2018-08-19T14:06:45.177Z,33.90
2018-08-19T14:09:17.498Z,32.30
2018-08-19T14:11:47.831Z,31.80
2018-08-19T14:14:18.923Z,32.00
2018-08-19T14:17:01.954Z,32.40
2018-08-19T14:19:32.942Z,31.90
2018-08-19T14:22:04.197Z,31.80
2018-08-19T14:24:33.855Z,32.30
2018-08-19T14:27:03.560Z,33.30
2018-08-19T14:29:32.779Z,34.70
2018-08-19T14:32:02.355Z,34.70
2018-08-19T14:34:31.869Z,34.20
2018-08-19T14:37:02.650Z,34.90
2018-08-19T14:39:32.066Z,33.70
2018-08-19T14:42:01.696Z,33.10
2018-08-19T14:44:31.195Z,32.30
2018-08-19T14:47:00.777Z,32.10
2018-08-19T14:49:30.346Z,32.10
2018-08-19T14:52:01.053Z,32.80
2018-08-19T14:54:30.516Z,33.30
2018-08-19T14:56:59.913Z,33.70
2018-08-19T14:59:29.386Z,33.70
2018-08-19T15:01:58.854Z,33.30
2018-08-19T15:04:28.857Z,33.50
2018-08-19T15:06:58.407Z,32.90
2018-08-19T15:09:30.902Z,32.80
2018-08-19T15:12:08.128Z,33.20
2018-08-19T15:14:37.798Z,33.50
2018-08-19T15:17:09.479Z,33.60
2018-08-19T15:19:44.652Z,33.00
2018-08-19T15:22:14.129Z,32.70
2018-08-19T15:24:43.356Z,32.50
2018-08-19T15:27:12.953Z,32.70
2018-08-19T15:29:44.126Z,32.80
2018-08-19T15:32:13.983Z,31.80
2018-08-19T15:34:43.235Z,31.90
2018-08-19T15:37:12.949Z,32.10
2018-08-19T15:39:42.326Z,32.10
2018-08-19T15:42:11.767Z,31.50
2018-08-19T15:44:41.246Z,31.70
2018-08-19T15:47:10.865Z,31.80
2018-08-19T15:49:40.680Z,31.60
2018-08-19T15:52:10.334Z,31.70
2018-08-19T15:54:47.144Z,32.00
2018-08-19T15:57:16.635Z,31.50
2018-08-19T15:59:46.104Z,31.30
2018-08-19T16:02:15.585Z,31.30
2018-08-19T16:04:44.916Z,31.50
2018-08-19T16:07:14.212Z,31.40
2018-08-19T16:09:43.774Z,31.60
2018-08-19T16:12:13.098Z,31.90
2018-08-19T16:14:42.537Z,32.00
2018-08-19T16:17:11.721Z,31.60
2018-08-19T16:19:40.895Z,30.90
2018-08-19T16:22:10.344Z,30.80
2018-08-19T16:24:40.029Z,30.50
2018-08-19T16:27:09.401Z,30.60
2018-08-19T16:29:39.100Z,30.60
2018-08-19T16:32:08.416Z,30.40
2018-08-19T16:34:37.915Z,30.70
2018-08-19T16:37:07.220Z,30.90
2018-08-19T16:39:36.757Z,30.60
2018-08-19T16:42:06.266Z,30.50
2018-08-19T16:44:35.692Z,30.00
2018-08-19T16:47:05.125Z,30.10
2018-08-19T16:49:34.130Z,30.00
2018-08-19T16:52:03.504Z,30.00
2018-08-19T16:54:32.975Z,30.10
2018-08-19T16:57:02.470Z,30.30
2018-08-19T16:59:31.459Z,30.40
2018-08-19T17:02:00.796Z,30.10
2018-08-19T17:04:30.249Z,30.00
2018-08-19T17:06:59.588Z,29.80
2018-08-19T17:09:29.104Z,29.80
2018-08-19T17:11:58.672Z,29.80
2018-08-19T17:14:28.225Z,29.70
2018-08-19T17:16:57.913Z,29.60
2018-08-19T17:19:27.380Z,29.60
2018-08-19T17:21:56.857Z,29.40
2018-08-19T17:24:26.023Z,29.30
2018-08-19T17:26:59.648Z,29.30
2018-08-19T17:29:29.501Z,29.10
2018-08-19T17:31:58.950Z,29.00
2018-08-19T17:34:28.448Z,28.90
2018-08-19T17:36:57.838Z,28.90
2018-08-19T17:39:27.508Z,28.80
2018-08-19T17:41:56.944Z,28.70
2018-08-19T17:44:26.470Z,28.70
2018-08-19T17:46:57.173Z,28.70
2018-08-19T17:49:28.610Z,28.50
2018-08-19T17:51:59.121Z,28.40
2018-08-19T17:54:29.443Z,28.30
2018-08-19T17:57:00.067Z,28.10
2018-08-19T17:59:29.564Z,28.00
2018-08-19T18:01:58.783Z,27.80
2018-08-19T18:04:34.954Z,27.70
2018-08-19T18:07:04.212Z,27.50
2018-08-19T18:09:33.946Z,27.30
2018-08-19T18:12:04.950Z,27.10
2018-08-19T18:14:35.246Z,27.00
2018-08-19T18:17:04.728Z,26.70
2018-08-19T18:19:35.088Z,26.40
2018-08-19T18:22:04.554Z,26.10
2018-08-19T18:24:33.749Z,25.80
2018-08-19T18:27:03.164Z,25.40
2018-08-19T18:29:44.887Z,25.00
2018-08-19T18:32:14.463Z,24.70
2018-08-19T18:34:43.914Z,24.30
2018-08-19T18:37:13.290Z,23.90
2018-08-19T18:39:44.138Z,23.50
2018-08-19T18:42:22.985Z,23.30
2018-08-19T18:44:53.214Z,23.10
2018-08-19T18:47:22.684Z,23.00
2018-08-19T18:49:52.698Z,22.80
2018-08-19T18:52:22.222Z,22.60
2018-08-19T18:54:51.533Z,22.50
2018-08-19T18:57:20.784Z,22.30
2018-08-19T18:59:50.248Z,22.20
2018-08-19T19:02:19.707Z,22.10
2018-08-19T19:04:49.228Z,21.90
2018-08-19T19:07:18.755Z,21.80
2018-08-19T19:09:49.965Z,21.70
2018-08-19T19:12:22.577Z,21.80
2018-08-19T19:14:52.215Z,21.90
2018-08-19T19:17:21.431Z,21.80
2018-08-19T19:19:51.101Z,21.70
2018-08-19T19:22:20.527Z,21.40
2018-08-19T19:24:52.983Z,21.30
2018-08-19T19:27:22.307Z,21.10
2018-08-19T19:29:56.728Z,21.00
2018-08-19T19:32:26.235Z,20.90
2018-08-19T19:34:55.814Z,20.80
2018-08-19T19:37:25.409Z,20.60
2018-08-19T19:40:00.959Z,20.50
2018-08-19T19:42:30.585Z,20.50
2018-08-19T19:45:00.241Z,20.40
2018-08-19T19:47:29.479Z,20.30
2018-08-19T19:49:59.662Z,20.30
2018-08-19T19:52:29.306Z,20.20
2018-08-19T19:54:58.715Z,20.10
2018-08-19T19:57:28.258Z,20.00
2018-08-19T19:59:57.776Z,19.90
2018-08-19T20:02:30.568Z,19.80
2018-08-19T20:05:00.301Z,19.70
2018-08-19T20:07:29.768Z,19.70
2018-08-19T20:09:59.207Z,19.60
2018-08-19T20:12:29.877Z,19.50
2018-08-19T20:15:01.364Z,19.40
2018-08-19T20:17:30.676Z,19.30
2018-08-19T20:19:59.965Z,19.20
2018-08-19T20:22:31.353Z,19.10
2018-08-19T20:25:00.911Z,19.10
2018-08-19T20:27:30.442Z,19.00
2018-08-19T20:29:59.762Z,18.90
2018-08-19T20:32:29.250Z,18.80
2018-08-19T20:34:58.897Z,18.70
2018-08-19T20:37:30.963Z,18.70
2018-08-19T20:40:00.395Z,18.60
2018-08-19T20:42:29.914Z,18.50
2018-08-19T20:44:59.438Z,18.40
2018-08-19T20:47:28.845Z,18.40
2018-08-19T20:49:58.564Z,18.30
2018-08-19T20:52:37.440Z,18.20
2018-08-19T20:55:06.804Z,18.20
2018-08-19T20:57:36.066Z,18.20
2018-08-19T21:00:06.312Z,18.10
2018-08-19T21:02:35.517Z,18.00
2018-08-19T21:05:05.812Z,18.00
2018-08-19T21:07:35.282Z,17.90
2018-08-19T21:10:05.287Z,17.80
2018-08-19T21:12:34.703Z,17.70
2018-08-19T21:15:03.951Z,17.70
2018-08-19T21:17:33.601Z,17.70
2018-08-19T21:20:03.597Z,17.60
2018-08-19T21:22:32.742Z,17.50
2018-08-19T21:25:02.030Z,17.50
2018-08-19T21:27:31.301Z,17.40
2018-08-19T21:30:00.992Z,17.40
2018-08-19T21:32:30.482Z,17.30
2018-08-19T21:34:59.903Z,17.20
2018-08-19T21:37:34.581Z,17.10
2018-08-19T21:40:04.805Z,17.00
2018-08-19T21:42:54.487Z,17.00
2018-08-19T21:45:23.941Z,16.90
2018-08-19T21:47:53.743Z,16.80
2018-08-19T21:50:23.037Z,16.80
2018-08-19T21:53:04.808Z,16.70
2018-08-19T21:55:35.399Z,16.70
2018-08-19T21:58:05.237Z,16.60
2018-08-19T22:00:37.355Z,16.50
2018-08-19T22:03:14.735Z,16.50
2018-08-19T22:05:44.106Z,16.40
2018-08-19T22:08:13.324Z,16.40
2018-08-19T22:10:43.900Z,16.30
2018-08-19T22:13:13.662Z,16.20
2018-08-19T22:15:44.250Z,16.20
2018-08-19T22:18:18.249Z,16.20
2018-08-19T22:21:01.503Z,16.20
2018-08-19T22:23:36.036Z,16.10
2018-08-19T22:26:05.213Z,16.10
2018-08-19T22:28:34.991Z,16.00
2018-08-19T22:31:15.995Z,16.00
2018-08-19T22:33:48.959Z,15.90
2018-08-19T22:36:18.800Z,15.90
2018-08-19T22:38:48.478Z,15.90
2018-08-19T22:41:25.722Z,15.90
2018-08-19T22:43:56.035Z,15.90
2018-08-19T22:46:26.132Z,15.90
2018-08-19T22:48:56.117Z,15.80
2018-08-19T22:51:25.981Z,15.70
2018-08-19T22:53:56.621Z,15.70
2018-08-19T22:56:26.123Z,15.50
2018-08-19T22:58:55.666Z,15.50
2018-08-19T23:01:29.438Z,15.50
2018-08-19T23:04:00.541Z,15.50
2018-08-19T23:06:30.409Z,15.40
2018-08-19T23:09:00.088Z,15.40
2018-08-19T23:11:35.336Z,15.40
2018-08-19T23:14:16.145Z,15.50
2018-08-19T23:16:45.685Z,15.60
2018-08-19T23:19:15.220Z,15.60
2018-08-19T23:21:44.655Z,15.40
2018-08-19T23:24:14.096Z,15.30
2018-08-19T23:26:43.604Z,15.30
2018-08-19T23:29:13.155Z,15.40
2018-08-19T23:31:42.488Z,15.50
2018-08-19T23:34:12.041Z,15.70
2018-08-19T23:36:41.560Z,15.60
2018-08-19T23:39:12.402Z,15.50
2018-08-19T23:41:42.350Z,15.30
2018-08-19T23:44:19.515Z,15.10
2018-08-19T23:46:50.963Z,15.10
2018-08-19T23:49:32.334Z,15.00
2018-08-19T23:52:01.676Z,15.10
2018-08-19T23:54:31.032Z,15.00
2018-08-19T23:57:00.544Z,15.10
2018-08-19T23:59:35.224Z,15.00
